sensor_id;sensor_type;location;lat;lon;timestamp;temperature;humidity
9824;DHT22;4951;50.778;7.196;2023-01-19T00:02:22;0.60;1.00
9824;DHT22;4951;50.778;7.196;2023-01-19T00:04:51;0.60;2.90
9824;DHT22;4951;50.778;7.196;2023-01-19T00:07:32;0.60;10.10
9824;DHT22;4951;50.778;7.196;2023-01-19T00:10:09;0.60;9.80
9824;DHT22;4951;50.778;7.196;2023-01-19T00:12:41;0.60;30.30
9824;DHT22;4951;50.778;7.196;2023-01-19T00:15:10;0.50;1.00
9824;DHT22;4951;50.778;7.196;2023-01-19T00:17:39;0.50;1.00
9824;DHT22;4951;50.778;7.196;2023-01-19T00:20:17;0.40;33.20
9824;DHT22;4951;50.778;7.196;2023-01-19T00:22:51;0.40;81.20
9824;DHT22;4951;50.778;7.196;2023-01-19T00:25:20;0.30;93.50
9824;DHT22;4951;50.778;7.196;2023-01-19T00:27:49;0.30;96.60
9824;DHT22;4951;50.778;7.196;2023-01-19T00:30:18;0.30;99.90
9824;DHT22;4951;50.778;7.196;2023-01-19T00:32:52;0.20;99.90
9824;DHT22;4951;50.778;7.196;2023-01-19T00:35:22;0.20;99.90
9824;DHT22;4951;50.778;7.196;2023-01-19T00:37:50;0.20;99.90
9824;DHT22;4951;50.778;7.196;2023-01-19T00:40:30;0.10;99.90
9824;DHT22;4951;50.778;7.196;2023-01-19T00:42:59;0.10;99.90
9824;DHT22;4951;50.778;7.196;2023-01-19T00:45:38;0.10;99.90
9824;DHT22;4951;50.778;7.196;2023-01-19T00:48:06;0.00;99.90
9824;DHT22;4951;50.778;7.196;2023-01-19T00:50:42;0.00;99.90
9824;DHT22;4951;50.778;7.196;2023-01-19T00:53:09;-0.10;99.90
9824;DHT22;4951;50.778;7.196;2023-01-19T00:55:40;-0.10;99.90
9824;DHT22;4951;50.778;7.196;2023-01-19T00:58:13;-0.10;99.90
9824;DHT22;4951;50.778;7.196;2023-01-19T01:00:57;-0.10;99.90
9824;DHT22;4951;50.778;7.196;2023-01-19T01:03:30;-0.10;99.90
9824;DHT22;4951;50.778;7.196;2023-01-19T01:05:59;-0.10;99.90
9824;DHT22;4951;50.778;7.196;2023-01-19T01:08:28;-0.10;99.90
9824;DHT22;4951;50.778;7.196;2023-01-19T01:11:02;0.00;99.90
9824;DHT22;4951;50.778;7.196;2023-01-19T01:13:30;0.00;99.90
9824;DHT22;4951;50.778;7.196;2023-01-19T01:15:57;0.00;99.90
9824;DHT22;4951;50.778;7.196;2023-01-19T01:18:36;0.00;99.90
9824;DHT22;4951;50.778;7.196;2023-01-19T01:21:04;0.00;99.90
9824;DHT22;4951;50.778;7.196;2023-01-19T01:23:32;0.00;99.90
9824;DHT22;4951;50.778;7.196;2023-01-19T01:26:02;0.00;99.90
9824;DHT22;4951;50.778;7.196;2023-01-19T01:28:45;0.00;99.90
9824;DHT22;4951;50.778;7.196;2023-01-19T01:31:21;0.00;99.90
9824;DHT22;4951;50.778;7.196;2023-01-19T01:33:53;-0.10;99.90
9824;DHT22;4951;50.778;7.196;2023-01-19T01:36:32;-0.10;99.90
9824;DHT22;4951;50.778;7.196;2023-01-19T01:39:09;-0.10;99.90
9824;DHT22;4951;50.778;7.196;2023-01-19T01:41:36;-0.10;99.90
9824;DHT22;4951;50.778;7.196;2023-01-19T01:44:53;-0.10;99.90
9824;DHT22;4951;50.778;7.196;2023-01-19T01:47:27;0.00;99.90
9824;DHT22;4951;50.778;7.196;2023-01-19T01:50:04;0.00;99.90
9824;DHT22;4951;50.778;7.196;2023-01-19T01:52:46;0.00;99.90
9824;DHT22;4951;50.778;7.196;2023-01-19T01:55:26;0.10;99.90
9824;DHT22;4951;50.778;7.196;2023-01-19T01:58:02;0.00;99.90
9824;DHT22;4951;50.778;7.196;2023-01-19T02:00:32;0.00;99.90
9824;DHT22;4951;50.778;7.196;2023-01-19T02:03:25;0.00;99.90
9824;DHT22;4951;50.778;7.196;2023-01-19T02:06:12;-0.10;99.90
9824;DHT22;4951;50.778;7.196;2023-01-19T02:08:58;-0.10;99.90
9824;DHT22;4951;50.778;7.196;2023-01-19T02:11:52;-0.20;99.90
9824;DHT22;4951;50.778;7.196;2023-01-19T02:14:38;-0.20;99.90
9824;DHT22;4951;50.778;7.196;2023-01-19T02:17:15;-0.30;99.90
9824;DHT22;4951;50.778;7.196;2023-01-19T02:19:50;-0.30;99.90
9824;DHT22;4951;50.778;7.196;2023-01-19T02:22:21;-0.40;99.90
9824;DHT22;4951;50.778;7.196;2023-01-19T02:25:08;-0.40;99.90
9824;DHT22;4951;50.778;7.196;2023-01-19T02:27:43;-0.40;99.90
9824;DHT22;4951;50.778;7.196;2023-01-19T02:30:20;-0.40;99.90
9824;DHT22;4951;50.778;7.196;2023-01-19T02:33:02;-0.30;99.90
9824;DHT22;4951;50.778;7.196;2023-01-19T02:35:30;-0.20;1.00
9824;DHT22;4951;50.778;7.196;2023-01-19T02:38:07;0.00;1.00
9824;DHT22;4951;50.778;7.196;2023-01-19T02:40:45;0.20;1.00
9824;DHT22;4951;50.778;7.196;2023-01-19T02:43:14;0.30;1.00
9824;DHT22;4951;50.778;7.196;2023-01-19T02:45:47;0.40;1.00
9824;DHT22;4951;50.778;7.196;2023-01-19T02:48:20;0.50;1.00
9824;DHT22;4951;50.778;7.196;2023-01-19T02:50:53;0.60;1.00
9824;DHT22;4951;50.778;7.196;2023-01-19T02:57:02;0.70;99.90
9824;DHT22;4951;50.778;7.196;2023-01-19T03:00:02;0.60;99.90
9824;DHT22;4951;50.778;7.196;2023-01-19T03:02:53;0.60;99.90
9824;DHT22;4951;50.778;7.196;2023-01-19T03:05:31;0.60;99.90
9824;DHT22;4951;50.778;7.196;2023-01-19T03:08:09;0.60;99.90
9824;DHT22;4951;50.778;7.196;2023-01-19T03:10:56;0.60;99.90
9824;DHT22;4951;50.778;7.196;2023-01-19T03:13:42;0.50;99.90
9824;DHT22;4951;50.778;7.196;2023-01-19T03:16:15;0.50;99.90
9824;DHT22;4951;50.778;7.196;2023-01-19T03:19:01;0.40;99.90
9824;DHT22;4951;50.778;7.196;2023-01-19T03:21:35;0.40;99.90
9824;DHT22;4951;50.778;7.196;2023-01-19T03:24:08;0.30;99.90
9824;DHT22;4951;50.778;7.196;2023-01-19T03:26:50;0.20;99.90
9824;DHT22;4951;50.778;7.196;2023-01-19T03:29:37;0.20;99.90
9824;DHT22;4951;50.778;7.196;2023-01-19T03:32:20;0.10;99.90
9824;DHT22;4951;50.778;7.196;2023-01-19T03:34:50;0.10;99.90
9824;DHT22;4951;50.778;7.196;2023-01-19T03:37:22;0.00;99.90
9824;DHT22;4951;50.778;7.196;2023-01-19T03:39:59;0.00;99.90
9824;DHT22;4951;50.778;7.196;2023-01-19T03:42:28;0.00;99.90
9824;DHT22;4951;50.778;7.196;2023-01-19T03:45:08;0.10;99.90
9824;DHT22;4951;50.778;7.196;2023-01-19T03:47:49;0.10;99.90
9824;DHT22;4951;50.778;7.196;2023-01-19T03:50:38;0.10;99.90
9824;DHT22;4951;50.778;7.196;2023-01-19T03:53:27;0.20;99.90
9824;DHT22;4951;50.778;7.196;2023-01-19T03:55:56;0.10;99.90
9824;DHT22;4951;50.778;7.196;2023-01-19T03:58:32;0.10;99.90
9824;DHT22;4951;50.778;7.196;2023-01-19T04:01:07;0.10;99.90
9824;DHT22;4951;50.778;7.196;2023-01-19T04:03:44;0.10;99.90
9824;DHT22;4951;50.778;7.196;2023-01-19T04:06:16;0.10;99.90
9824;DHT22;4951;50.778;7.196;2023-01-19T04:08:50;0.20;99.90
9824;DHT22;4951;50.778;7.196;2023-01-19T04:11:18;0.20;99.90
9824;DHT22;4951;50.778;7.196;2023-01-19T04:13:52;0.30;99.90
9824;DHT22;4951;50.778;7.196;2023-01-19T04:16:34;0.30;99.90
9824;DHT22;4951;50.778;7.196;2023-01-19T04:19:05;0.30;99.90
9824;DHT22;4951;50.778;7.196;2023-01-19T04:21:43;0.40;99.90
9824;DHT22;4951;50.778;7.196;2023-01-19T04:24:23;0.40;99.90
9824;DHT22;4951;50.778;7.196;2023-01-19T04:27:01;0.50;99.90
9824;DHT22;4951;50.778;7.196;2023-01-19T04:29:40;0.60;99.90
9824;DHT22;4951;50.778;7.196;2023-01-19T04:32:22;0.70;99.90
9824;DHT22;4951;50.778;7.196;2023-01-19T04:35:14;0.80;99.90
9824;DHT22;4951;50.778;7.196;2023-01-19T04:37:52;0.90;99.90
9824;DHT22;4951;50.778;7.196;2023-01-19T04:40:29;1.00;99.90
9824;DHT22;4951;50.778;7.196;2023-01-19T04:43:35;1.00;99.90
9824;DHT22;4951;50.778;7.196;2023-01-19T04:46:13;1.10;99.90
9824;DHT22;4951;50.778;7.196;2023-01-19T04:48:52;1.10;99.90
9824;DHT22;4951;50.778;7.196;2023-01-19T04:51:28;1.20;99.90
9824;DHT22;4951;50.778;7.196;2023-01-19T04:54:00;1.20;99.90
9824;DHT22;4951;50.778;7.196;2023-01-19T04:56:29;1.20;99.90
9824;DHT22;4951;50.778;7.196;2023-01-19T04:58:57;1.20;87.10
9824;DHT22;4951;50.778;7.196;2023-01-19T05:01:34;1.20;35.70
9824;DHT22;4951;50.778;7.196;2023-01-19T05:04:03;1.20;14.80
9824;DHT22;4951;50.778;7.196;2023-01-19T05:06:33;1.20;1.00
9824;DHT22;4951;50.778;7.196;2023-01-19T05:09:01;1.10;1.00
9824;DHT22;4951;50.778;7.196;2023-01-19T05:11:31;1.10;11.30
9824;DHT22;4951;50.778;7.196;2023-01-19T05:13:59;1.10;23.90
9824;DHT22;4951;50.778;7.196;2023-01-19T05:16:34;1.10;41.00
9824;DHT22;4951;50.778;7.196;2023-01-19T05:19:13;1.20;58.10
9824;DHT22;4951;50.778;7.196;2023-01-19T05:22:00;1.20;54.80
9824;DHT22;4951;50.778;7.196;2023-01-19T05:24:32;1.20;45.00
9824;DHT22;4951;50.778;7.196;2023-01-19T05:27:24;1.30;50.00
9824;DHT22;4951;50.778;7.196;2023-01-19T05:30:06;1.30;32.60
9824;DHT22;4951;50.778;7.196;2023-01-19T05:33:00;1.30;1.00
9824;DHT22;4951;50.778;7.196;2023-01-19T05:35:45;1.40;1.00
9824;DHT22;4951;50.778;7.196;2023-01-19T05:38:29;1.40;1.00
9824;DHT22;4951;50.778;7.196;2023-01-19T05:41:05;1.40;1.00
9824;DHT22;4951;50.778;7.196;2023-01-19T05:43:42;1.50;1.00
9824;DHT22;4951;50.778;7.196;2023-01-19T05:46:10;1.50;1.00
9824;DHT22;4951;50.778;7.196;2023-01-19T05:48:40;1.60;1.00
9824;DHT22;4951;50.778;7.196;2023-01-19T05:51:08;1.60;1.00
9824;DHT22;4951;50.778;7.196;2023-01-19T05:53:36;1.60;1.00
9824;DHT22;4951;50.778;7.196;2023-01-19T05:56:09;1.60;1.00
9824;DHT22;4951;50.778;7.196;2023-01-19T05:58:49;1.70;1.00
9824;DHT22;4951;50.778;7.196;2023-01-19T06:01:21;1.70;1.00
9824;DHT22;4951;50.778;7.196;2023-01-19T06:03:57;1.70;1.00
9824;DHT22;4951;50.778;7.196;2023-01-19T06:06:30;1.70;1.00
9824;DHT22;4951;50.778;7.196;2023-01-19T06:09:15;1.70;1.00
9824;DHT22;4951;50.778;7.196;2023-01-19T06:11:45;1.70;1.00
9824;DHT22;4951;50.778;7.196;2023-01-19T06:14:13;1.70;1.00
9824;DHT22;4951;50.778;7.196;2023-01-19T06:16:44;1.70;1.00
9824;DHT22;4951;50.778;7.196;2023-01-19T06:19:20;1.60;1.00
9824;DHT22;4951;50.778;7.196;2023-01-19T06:22:01;1.60;10.60
9824;DHT22;4951;50.778;7.196;2023-01-19T06:24:35;1.60;51.10
9824;DHT22;4951;50.778;7.196;2023-01-19T06:27:02;1.60;99.90
9824;DHT22;4951;50.778;7.196;2023-01-19T06:29:31;1.50;99.90
9824;DHT22;4951;50.778;7.196;2023-01-19T06:32:04;1.40;99.90
9824;DHT22;4951;50.778;7.196;2023-01-19T06:34:41;1.30;99.90
9824;DHT22;4951;50.778;7.196;2023-01-19T06:37:32;1.30;99.90
9824;DHT22;4951;50.778;7.196;2023-01-19T06:40:15;1.20;99.90
9824;DHT22;4951;50.778;7.196;2023-01-19T06:42:42;1.10;99.90
9824;DHT22;4951;50.778;7.196;2023-01-19T06:45:10;1.10;1.00
9824;DHT22;4951;50.778;7.196;2023-01-19T06:47:46;1.00;1.00
9824;DHT22;4951;50.778;7.196;2023-01-19T06:50:18;1.00;1.00
9824;DHT22;4951;50.778;7.196;2023-01-19T06:52:48;1.00;1.00
9824;DHT22;4951;50.778;7.196;2023-01-19T06:55:16;0.90;1.00
9824;DHT22;4951;50.778;7.196;2023-01-19T06:57:43;0.90;1.00
9824;DHT22;4951;50.778;7.196;2023-01-19T07:00:11;0.80;1.00
9824;DHT22;4951;50.778;7.196;2023-01-19T07:02:40;0.80;1.00
9824;DHT22;4951;50.778;7.196;2023-01-19T07:05:10;0.80;1.00
9824;DHT22;4951;50.778;7.196;2023-01-19T07:07:39;0.70;1.00
9824;DHT22;4951;50.778;7.196;2023-01-19T07:10:12;0.70;1.00
9824;DHT22;4951;50.778;7.196;2023-01-19T07:12:50;0.70;1.00
9824;DHT22;4951;50.778;7.196;2023-01-19T07:15:20;0.70;1.00
9824;DHT22;4951;50.778;7.196;2023-01-19T07:17:47;0.70;1.00
9824;DHT22;4951;50.778;7.196;2023-01-19T07:20:16;0.70;1.00
9824;DHT22;4951;50.778;7.196;2023-01-19T07:23:01;0.60;1.00
9824;DHT22;4951;50.778;7.196;2023-01-19T07:25:49;0.70;1.00
9824;DHT22;4951;50.778;7.196;2023-01-19T07:28:19;0.60;1.00
9824;DHT22;4951;50.778;7.196;2023-01-19T07:30:57;0.70;1.00
9824;DHT22;4951;50.778;7.196;2023-01-19T07:33:24;0.70;1.00
9824;DHT22;4951;50.778;7.196;2023-01-19T07:38:33;0.70;1.00
9824;DHT22;4951;50.778;7.196;2023-01-19T07:41:10;0.70;1.00
9824;DHT22;4951;50.778;7.196;2023-01-19T07:43:46;0.60;1.00
9824;DHT22;4951;50.778;7.196;2023-01-19T07:46:22;0.60;1.00
9824;DHT22;4951;50.778;7.196;2023-01-19T07:48:57;0.60;1.00
9824;DHT22;4951;50.778;7.196;2023-01-19T07:51:46;0.60;1.00
9824;DHT22;4951;50.778;7.196;2023-01-19T07:54:27;0.60;1.00
9824;DHT22;4951;50.778;7.196;2023-01-19T07:57:05;0.60;1.00
9824;DHT22;4951;50.778;7.196;2023-01-19T08:03:09;0.60;1.00
9824;DHT22;4951;50.778;7.196;2023-01-19T08:05:51;0.60;1.00
9824;DHT22;4951;50.778;7.196;2023-01-19T08:08:31;0.60;1.00
9824;DHT22;4951;50.778;7.196;2023-01-19T08:11:37;0.60;1.00
9824;DHT22;4951;50.778;7.196;2023-01-19T08:14:28;0.60;1.00
9824;DHT22;4951;50.778;7.196;2023-01-19T08:17:19;0.60;1.00
9824;DHT22;4951;50.778;7.196;2023-01-19T08:19:52;0.60;1.00
9824;DHT22;4951;50.778;7.196;2023-01-19T08:22:20;0.60;1.00
9824;DHT22;4951;50.778;7.196;2023-01-19T08:24:47;0.60;1.00
9824;DHT22;4951;50.778;7.196;2023-01-19T08:27:21;0.60;1.00
9824;DHT22;4951;50.778;7.196;2023-01-19T08:30:02;0.70;1.00
9824;DHT22;4951;50.778;7.196;2023-01-19T08:32:36;0.70;1.00
9824;DHT22;4951;50.778;7.196;2023-01-19T08:35:11;0.70;1.00
9824;DHT22;4951;50.778;7.196;2023-01-19T08:37:39;0.70;1.00
9824;DHT22;4951;50.778;7.196;2023-01-19T08:40:09;0.80;1.00
9824;DHT22;4951;50.778;7.196;2023-01-19T08:42:39;0.80;1.00
9824;DHT22;4951;50.778;7.196;2023-01-19T08:45:11;0.80;1.00
9824;DHT22;4951;50.778;7.196;2023-01-19T08:47:38;0.90;1.00
9824;DHT22;4951;50.778;7.196;2023-01-19T08:50:21;0.90;1.00
9824;DHT22;4951;50.778;7.196;2023-01-19T08:52:57;0.90;1.00
9824;DHT22;4951;50.778;7.196;2023-01-19T08:55:31;1.00;1.00
9824;DHT22;4951;50.778;7.196;2023-01-19T08:58:27;1.00;1.00
9824;DHT22;4951;50.778;7.196;2023-01-19T09:00:58;1.00;1.00
9824;DHT22;4951;50.778;7.196;2023-01-19T09:03:31;1.10;1.00
9824;DHT22;4951;50.778;7.196;2023-01-19T09:09:27;1.20;1.00
9824;DHT22;4951;50.778;7.196;2023-01-19T09:11:59;1.20;1.00
9824;DHT22;4951;50.778;7.196;2023-01-19T09:14:29;1.30;1.00
9824;DHT22;4951;50.778;7.196;2023-01-19T09:16:57;1.30;1.00
9824;DHT22;4951;50.778;7.196;2023-01-19T09:19:24;1.30;1.00
9824;DHT22;4951;50.778;7.196;2023-01-19T09:21:52;1.40;1.00
9824;DHT22;4951;50.778;7.196;2023-01-19T09:24:20;1.40;1.00
9824;DHT22;4951;50.778;7.196;2023-01-19T09:26:47;1.40;1.00
9824;DHT22;4951;50.778;7.196;2023-01-19T09:29:15;1.40;1.00
9824;DHT22;4951;50.778;7.196;2023-01-19T09:31:48;1.30;1.00
9824;DHT22;4951;50.778;7.196;2023-01-19T09:34:17;1.40;1.00
9824;DHT22;4951;50.778;7.196;2023-01-19T09:36:45;1.40;1.00
9824;DHT22;4951;50.778;7.196;2023-01-19T09:39:12;1.40;1.00
9824;DHT22;4951;50.778;7.196;2023-01-19T09:41:45;1.40;1.00
9824;DHT22;4951;50.778;7.196;2023-01-19T09:44:17;1.40;1.00
9824;DHT22;4951;50.778;7.196;2023-01-19T09:46:53;1.40;1.00
9824;DHT22;4951;50.778;7.196;2023-01-19T09:49:29;1.40;1.00
9824;DHT22;4951;50.778;7.196;2023-01-19T09:52:04;1.50;1.00
9824;DHT22;4951;50.778;7.196;2023-01-19T09:54:39;1.50;1.00
9824;DHT22;4951;50.778;7.196;2023-01-19T09:57:18;1.50;1.00
9824;DHT22;4951;50.778;7.196;2023-01-19T09:59:54;1.50;1.00
9824;DHT22;4951;50.778;7.196;2023-01-19T10:02:43;1.50;1.00
9824;DHT22;4951;50.778;7.196;2023-01-19T10:06:04;1.50;1.00
9824;DHT22;4951;50.778;7.196;2023-01-19T10:08:56;1.50;1.00
9824;DHT22;4951;50.778;7.196;2023-01-19T10:11:58;1.60;1.00
9824;DHT22;4951;50.778;7.196;2023-01-19T10:15:53;1.60;1.00
9824;DHT22;4951;50.778;7.196;2023-01-19T10:19:28;1.60;1.00
9824;DHT22;4951;50.778;7.196;2023-01-19T10:22:19;1.60;1.00
9824;DHT22;4951;50.778;7.196;2023-01-19T10:25:39;1.60;1.00
9824;DHT22;4951;50.778;7.196;2023-01-19T10:29:17;1.70;1.00
9824;DHT22;4951;50.778;7.196;2023-01-19T10:32:45;1.70;1.00
9824;DHT22;4951;50.778;7.196;2023-01-19T10:35:49;1.70;1.00
9824;DHT22;4951;50.778;7.196;2023-01-19T10:39:01;1.70;1.00
9824;DHT22;4951;50.778;7.196;2023-01-19T10:42:38;1.80;1.00
9824;DHT22;4951;50.778;7.196;2023-01-19T10:45:56;1.90;1.00
9824;DHT22;4951;50.778;7.196;2023-01-19T10:48:40;1.90;1.00
9824;DHT22;4951;50.778;7.196;2023-01-19T10:51:10;1.90;1.00
9824;DHT22;4951;50.778;7.196;2023-01-19T10:53:43;1.90;1.00
9824;DHT22;4951;50.778;7.196;2023-01-19T10:56:50;1.90;1.00
9824;DHT22;4951;50.778;7.196;2023-01-19T10:59:34;1.90;1.00
9824;DHT22;4951;50.778;7.196;2023-01-19T11:02:18;1.90;1.00
9824;DHT22;4951;50.778;7.196;2023-01-19T11:04:47;1.90;1.00
9824;DHT22;4951;50.778;7.196;2023-01-19T11:07:22;1.90;1.00
9824;DHT22;4951;50.778;7.196;2023-01-19T11:10:21;1.90;1.00
9824;DHT22;4951;50.778;7.196;2023-01-19T11:12:59;1.90;1.00
9824;DHT22;4951;50.778;7.196;2023-01-19T11:15:34;1.90;1.00
9824;DHT22;4951;50.778;7.196;2023-01-19T11:18:04;2.00;1.00
9824;DHT22;4951;50.778;7.196;2023-01-19T11:20:38;2.00;1.00
9824;DHT22;4951;50.778;7.196;2023-01-19T11:23:28;2.00;1.00
9824;DHT22;4951;50.778;7.196;2023-01-19T11:25:59;2.10;1.00
9824;DHT22;4951;50.778;7.196;2023-01-19T11:28:34;2.10;1.00
9824;DHT22;4951;50.778;7.196;2023-01-19T11:31:16;2.10;1.00
9824;DHT22;4951;50.778;7.196;2023-01-19T11:33:59;2.10;1.00
9824;DHT22;4951;50.778;7.196;2023-01-19T11:36:30;2.20;1.00
9824;DHT22;4951;50.778;7.196;2023-01-19T11:39:23;2.30;1.00
9824;DHT22;4951;50.778;7.196;2023-01-19T11:41:53;2.30;1.00
9824;DHT22;4951;50.778;7.196;2023-01-19T11:45:00;2.40;1.00
9824;DHT22;4951;50.778;7.196;2023-01-19T11:47:40;2.50;1.00
9824;DHT22;4951;50.778;7.196;2023-01-19T11:50:41;2.50;1.00
9824;DHT22;4951;50.778;7.196;2023-01-19T11:53:17;2.60;1.00
9824;DHT22;4951;50.778;7.196;2023-01-19T11:56:03;2.70;1.00
9824;DHT22;4951;50.778;7.196;2023-01-19T12:01:52;2.80;1.00
9824;DHT22;4951;50.778;7.196;2023-01-19T12:04:31;2.90;1.00
9824;DHT22;4951;50.778;7.196;2023-01-19T12:07:03;2.90;1.00
9824;DHT22;4951;50.778;7.196;2023-01-19T12:09:39;3.00;1.00
9824;DHT22;4951;50.778;7.196;2023-01-19T12:12:19;3.00;1.00
9824;DHT22;4951;50.778;7.196;2023-01-19T12:15:04;3.10;1.00
9824;DHT22;4951;50.778;7.196;2023-01-19T12:17:39;3.10;1.00
9824;DHT22;4951;50.778;7.196;2023-01-19T12:20:16;3.10;1.00
9824;DHT22;4951;50.778;7.196;2023-01-19T12:22:57;3.20;1.00
9824;DHT22;4951;50.778;7.196;2023-01-19T12:25:51;3.30;1.00
9824;DHT22;4951;50.778;7.196;2023-01-19T12:28:43;3.30;1.00
9824;DHT22;4951;50.778;7.196;2023-01-19T12:31:14;3.30;1.00
9824;DHT22;4951;50.778;7.196;2023-01-19T12:33:53;3.20;1.00
9824;DHT22;4951;50.778;7.196;2023-01-19T12:36:49;3.20;1.00
9824;DHT22;4951;50.778;7.196;2023-01-19T12:39:33;3.10;1.00
9824;DHT22;4951;50.778;7.196;2023-01-19T12:42:11;3.20;1.00
9824;DHT22;4951;50.778;7.196;2023-01-19T12:44:44;3.40;1.00
9824;DHT22;4951;50.778;7.196;2023-01-19T12:47:19;3.70;1.00
9824;DHT22;4951;50.778;7.196;2023-01-19T12:49:57;4.00;1.00
9824;DHT22;4951;50.778;7.196;2023-01-19T12:52:46;4.10;1.00
9824;DHT22;4951;50.778;7.196;2023-01-19T12:55:20;4.30;1.00
9824;DHT22;4951;50.778;7.196;2023-01-19T12:57:57;4.50;1.00
9824;DHT22;4951;50.778;7.196;2023-01-19T13:00:39;4.70;1.00
9824;DHT22;4951;50.778;7.196;2023-01-19T13:03:43;4.90;1.00
9824;DHT22;4951;50.778;7.196;2023-01-19T13:06:13;5.10;1.00
9824;DHT22;4951;50.778;7.196;2023-01-19T13:08:58;5.30;1.00
9824;DHT22;4951;50.778;7.196;2023-01-19T13:11:26;5.20;1.00
9824;DHT22;4951;50.778;7.196;2023-01-19T13:14:35;5.10;1.00
9824;DHT22;4951;50.778;7.196;2023-01-19T13:17:24;5.00;1.00
9824;DHT22;4951;50.778;7.196;2023-01-19T13:20:16;4.90;1.00
9824;DHT22;4951;50.778;7.196;2023-01-19T13:26:14;4.80;1.00
9824;DHT22;4951;50.778;7.196;2023-01-19T13:28:54;4.70;1.00
9824;DHT22;4951;50.778;7.196;2023-01-19T13:31:40;4.70;1.00
9824;DHT22;4951;50.778;7.196;2023-01-19T13:34:34;4.70;1.00
9824;DHT22;4951;50.778;7.196;2023-01-19T13:37:19;4.70;1.00
9824;DHT22;4951;50.778;7.196;2023-01-19T13:40:24;4.60;1.00
9824;DHT22;4951;50.778;7.196;2023-01-19T13:42:58;4.50;1.00
9824;DHT22;4951;50.778;7.196;2023-01-19T13:45:36;4.40;1.00
9824;DHT22;4951;50.778;7.196;2023-01-19T13:48:10;4.30;1.00
9824;DHT22;4951;50.778;7.196;2023-01-19T13:51:16;4.20;1.00
9824;DHT22;4951;50.778;7.196;2023-01-19T13:53:57;4.10;1.00
9824;DHT22;4951;50.778;7.196;2023-01-19T13:56:37;4.00;1.00
9824;DHT22;4951;50.778;7.196;2023-01-19T13:59:18;4.00;1.00
9824;DHT22;4951;50.778;7.196;2023-01-19T14:01:50;4.00;1.00
9824;DHT22;4951;50.778;7.196;2023-01-19T14:04:33;4.00;1.00
9824;DHT22;4951;50.778;7.196;2023-01-19T14:07:04;4.10;1.00
9824;DHT22;4951;50.778;7.196;2023-01-19T14:09:50;4.30;1.00
9824;DHT22;4951;50.778;7.196;2023-01-19T14:12:32;4.50;1.00
9824;DHT22;4951;50.778;7.196;2023-01-19T14:15:13;4.60;1.00
9824;DHT22;4951;50.778;7.196;2023-01-19T14:18:20;4.70;1.00
9824;DHT22;4951;50.778;7.196;2023-01-19T14:20:58;4.70;1.00
9824;DHT22;4951;50.778;7.196;2023-01-19T14:23:43;4.70;1.00
9824;DHT22;4951;50.778;7.196;2023-01-19T14:26:39;4.60;1.00
9824;DHT22;4951;50.778;7.196;2023-01-19T14:29:27;4.50;1.00
9824;DHT22;4951;50.778;7.196;2023-01-19T14:32:12;4.40;1.00
9824;DHT22;4951;50.778;7.196;2023-01-19T14:35:11;4.40;1.00
9824;DHT22;4951;50.778;7.196;2023-01-19T14:38:17;4.30;1.00
9824;DHT22;4951;50.778;7.196;2023-01-19T14:40:56;4.30;1.00
9824;DHT22;4951;50.778;7.196;2023-01-19T14:43:41;4.20;1.00
9824;DHT22;4951;50.778;7.196;2023-01-19T14:46:35;4.10;1.00
9824;DHT22;4951;50.778;7.196;2023-01-19T14:49:06;4.00;99.90
9824;DHT22;4951;50.778;7.196;2023-01-19T14:51:42;3.90;99.90
9824;DHT22;4951;50.778;7.196;2023-01-19T14:54:15;3.80;1.00
9824;DHT22;4951;50.778;7.196;2023-01-19T14:57:07;3.60;1.00
9824;DHT22;4951;50.778;7.196;2023-01-19T15:00:19;3.60;1.00
9824;DHT22;4951;50.778;7.196;2023-01-19T15:02:49;3.50;1.00
9824;DHT22;4951;50.778;7.196;2023-01-19T15:05:17;3.40;1.00
9824;DHT22;4951;50.778;7.196;2023-01-19T15:08:02;3.40;1.00
9824;DHT22;4951;50.778;7.196;2023-01-19T15:10:32;3.30;1.00
9824;DHT22;4951;50.778;7.196;2023-01-19T15:13:14;3.30;1.00
9824;DHT22;4951;50.778;7.196;2023-01-19T15:15:51;3.30;1.00
9824;DHT22;4951;50.778;7.196;2023-01-19T15:18:25;3.30;1.00
9824;DHT22;4951;50.778;7.196;2023-01-19T15:21:04;3.20;1.00
9824;DHT22;4951;50.778;7.196;2023-01-19T15:23:43;3.20;1.00
9824;DHT22;4951;50.778;7.196;2023-01-19T15:26:16;3.20;1.00
9824;DHT22;4951;50.778;7.196;2023-01-19T15:31:56;3.20;1.00
9824;DHT22;4951;50.778;7.196;2023-01-19T15:34:33;3.20;1.00
9824;DHT22;4951;50.778;7.196;2023-01-19T15:37:02;3.10;1.00
9824;DHT22;4951;50.778;7.196;2023-01-19T15:39:36;3.10;1.00
9824;DHT22;4951;50.778;7.196;2023-01-19T15:42:38;3.00;1.00
9824;DHT22;4951;50.778;7.196;2023-01-19T15:45:36;3.00;1.00
9824;DHT22;4951;50.778;7.196;2023-01-19T15:48:27;2.90;1.00
9824;DHT22;4951;50.778;7.196;2023-01-19T15:51:03;2.80;1.00
9824;DHT22;4951;50.778;7.196;2023-01-19T15:53:47;2.80;1.00
9824;DHT22;4951;50.778;7.196;2023-01-19T15:56:33;2.70;1.00
9824;DHT22;4951;50.778;7.196;2023-01-19T15:59:07;2.70;1.00
9824;DHT22;4951;50.778;7.196;2023-01-19T16:01:50;2.70;1.00
9824;DHT22;4951;50.778;7.196;2023-01-19T16:04:18;2.70;1.00
9824;DHT22;4951;50.778;7.196;2023-01-19T16:07:01;2.70;1.00
9824;DHT22;4951;50.778;7.196;2023-01-19T16:09:42;2.70;1.00
9824;DHT22;4951;50.778;7.196;2023-01-19T16:12:50;2.70;1.00
9824;DHT22;4951;50.778;7.196;2023-01-19T16:16:06;2.70;1.00
9824;DHT22;4951;50.778;7.196;2023-01-19T16:19:09;2.70;1.00
9824;DHT22;4951;50.778;7.196;2023-01-19T16:21:46;2.60;1.00
9824;DHT22;4951;50.778;7.196;2023-01-19T16:24:25;2.70;1.00
9824;DHT22;4951;50.778;7.196;2023-01-19T16:27:07;2.70;1.00
9824;DHT22;4951;50.778;7.196;2023-01-19T16:29:36;2.70;1.00
9824;DHT22;4951;50.778;7.196;2023-01-19T16:32:07;2.60;1.00
9824;DHT22;4951;50.778;7.196;2023-01-19T16:34:35;2.60;1.00
9824;DHT22;4951;50.778;7.196;2023-01-19T16:37:16;2.60;1.00
9824;DHT22;4951;50.778;7.196;2023-01-19T16:40:29;2.60;1.00
9824;DHT22;4951;50.778;7.196;2023-01-19T16:43:04;2.50;1.00
9824;DHT22;4951;50.778;7.196;2023-01-19T16:45:57;2.50;1.00
9824;DHT22;4951;50.778;7.196;2023-01-19T16:48:26;2.40;1.00
9824;DHT22;4951;50.778;7.196;2023-01-19T16:50:59;2.40;1.00
9824;DHT22;4951;50.778;7.196;2023-01-19T16:53:32;2.30;1.00
9824;DHT22;4951;50.778;7.196;2023-01-19T16:56:15;2.30;1.00
9824;DHT22;4951;50.778;7.196;2023-01-19T16:58:46;2.30;1.00
9824;DHT22;4951;50.778;7.196;2023-01-19T17:04:26;2.30;1.00
9824;DHT22;4951;50.778;7.196;2023-01-19T17:06:53;2.30;1.00
9824;DHT22;4951;50.778;7.196;2023-01-19T17:09:21;2.30;1.00
9824;DHT22;4951;50.778;7.196;2023-01-19T17:15:10;2.30;1.00
9824;DHT22;4951;50.778;7.196;2023-01-19T17:17:42;2.30;1.00
9824;DHT22;4951;50.778;7.196;2023-01-19T17:20:10;2.30;1.00
9824;DHT22;4951;50.778;7.196;2023-01-19T17:23:05;2.30;1.00
9824;DHT22;4951;50.778;7.196;2023-01-19T17:25:35;2.30;1.00
9824;DHT22;4951;50.778;7.196;2023-01-19T17:28:10;2.30;1.00
9824;DHT22;4951;50.778;7.196;2023-01-19T17:30:49;2.30;1.00
9824;DHT22;4951;50.778;7.196;2023-01-19T17:33:23;2.30;1.00
9824;DHT22;4951;50.778;7.196;2023-01-19T17:39:12;2.30;1.00
9824;DHT22;4951;50.778;7.196;2023-01-19T17:42:05;2.20;1.00
9824;DHT22;4951;50.778;7.196;2023-01-19T17:45:26;2.20;1.00
9824;DHT22;4951;50.778;7.196;2023-01-19T17:47:55;2.20;1.00
9824;DHT22;4951;50.778;7.196;2023-01-19T17:50:22;2.20;1.00
9824;DHT22;4951;50.778;7.196;2023-01-19T17:52:55;2.20;1.00
9824;DHT22;4951;50.778;7.196;2023-01-19T17:55:23;2.20;1.00
9824;DHT22;4951;50.778;7.196;2023-01-19T17:57:50;2.20;1.00
9824;DHT22;4951;50.778;7.196;2023-01-19T18:00:18;2.20;1.00
9824;DHT22;4951;50.778;7.196;2023-01-19T18:02:48;2.10;1.00
9824;DHT22;4951;50.778;7.196;2023-01-19T18:05:27;2.10;1.00
9824;DHT22;4951;50.778;7.196;2023-01-19T18:08:11;2.10;1.00
9824;DHT22;4951;50.778;7.196;2023-01-19T18:10:40;2.10;1.00
9824;DHT22;4951;50.778;7.196;2023-01-19T18:13:07;2.20;1.00
9824;DHT22;4951;50.778;7.196;2023-01-19T18:15:34;2.20;1.00
9824;DHT22;4951;50.778;7.196;2023-01-19T18:18:01;2.10;1.00
9824;DHT22;4951;50.778;7.196;2023-01-19T18:20:42;2.10;1.00
9824;DHT22;4951;50.778;7.196;2023-01-19T18:23:13;2.10;1.00